createdAt,value
2017-07-17T00:00:21.293Z,1015.56
2017-07-17T00:00:47.428Z,1015.55
2017-07-17T00:01:13.571Z,1015.53
2017-07-17T00:01:39.722Z,1015.53
2017-07-17T00:02:05.877Z,1015.54
2017-07-17T00:02:32.012Z,1015.54
2017-07-17T00:02:58.164Z,1015.53
2017-07-17T00:03:24.308Z,1015.56
2017-07-17T00:03:50.441Z,1015.53
2017-07-17T00:04:16.591Z,1015.52
2017-07-17T00:04:42.738Z,1015.53
2017-07-17T00:05:08.877Z,1015.52
2017-07-17T00:05:35.021Z,1015.5
2017-07-17T00:06:01.174Z,1015.5
2017-07-17T00:06:27.305Z,1015.52
2017-07-17T00:06:53.450Z,1015.48
2017-07-17T00:07:19.603Z,1015.48
2017-07-17T00:07:45.736Z,1015.48
2017-07-17T00:08:11.882Z,1015.49
2017-07-17T00:08:38.021Z,1015.46
2017-07-17T00:09:04.172Z,1015.45
2017-07-17T00:09:30.323Z,1015.44
2017-07-17T00:09:56.454Z,1015.45
2017-07-17T00:10:22.613Z,1015.43
2017-07-17T00:10:48.764Z,1015.41
2017-07-17T00:11:14.899Z,1015.42
2017-07-17T00:11:41.038Z,1015.41
2017-07-17T00:12:07.187Z,1015.38
2017-07-17T00:12:33.330Z,1015.4
2017-07-17T00:12:59.464Z,1015.37
2017-07-17T00:13:25.613Z,1015.41
2017-07-17T00:13:51.781Z,1015.38
2017-07-17T00:14:17.909Z,1015.37
2017-07-17T00:14:44.046Z,1015.35
2017-07-17T00:15:10.190Z,1015.36
2017-07-17T00:15:36.338Z,1015.36
2017-07-17T00:16:02.475Z,1015.36
2017-07-17T00:16:28.615Z,1015.34
2017-07-17T00:16:54.766Z,1015.35
2017-07-17T00:17:20.935Z,1015.37
2017-07-17T00:17:47.067Z,1015.37
2017-07-17T00:18:13.219Z,1015.35
2017-07-17T00:18:39.362Z,1015.41
2017-07-17T00:19:05.509Z,1015.34
2017-07-17T00:19:31.645Z,1015.33
2017-07-17T00:19:57.782Z,1015.34
2017-07-17T00:20:23.933Z,1015.33
2017-07-17T00:20:50.077Z,1015.31
2017-07-17T00:21:16.215Z,1015.36
2017-07-17T00:21:42.362Z,1015.35
2017-07-17T00:22:08.528Z,1015.32
2017-07-17T00:22:34.682Z,1015.31
2017-07-17T00:23:00.815Z,1015.32
2017-07-17T00:23:26.966Z,1015.3
2017-07-17T00:23:53.099Z,1015.31
2017-07-17T00:24:19.245Z,1015.27
2017-07-17T00:24:45.390Z,1015.25
2017-07-17T00:25:11.527Z,1015.29
2017-07-17T00:25:37.668Z,1015.28
2017-07-17T00:26:03.822Z,1015.27
2017-07-17T00:26:29.959Z,1015.24
2017-07-17T00:26:56.096Z,1015.27
2017-07-17T00:27:22.249Z,1015.28
2017-07-17T00:27:48.391Z,1015.27
2017-07-17T00:28:14.529Z,1015.32
2017-07-17T00:28:40.681Z,1015.31
2017-07-17T00:29:06.824Z,1015.29
2017-07-17T00:29:32.962Z,1015.34
2017-07-17T00:29:59.110Z,1015.29
2017-07-17T00:30:25.245Z,1015.31
2017-07-17T00:30:51.399Z,1015.3
2017-07-17T00:31:17.540Z,1015.31
2017-07-17T00:31:43.678Z,1015.32
2017-07-17T00:32:09.827Z,1015.31
2017-07-17T00:32:35.975Z,1015.29
2017-07-17T00:33:02.108Z,1015.3
2017-07-17T00:33:28.258Z,1015.28
2017-07-17T00:33:54.407Z,1015.31
2017-07-17T00:34:20.541Z,1015.28
2017-07-17T00:34:46.684Z,1015.29
2017-07-17T00:35:12.837Z,1015.3
2017-07-17T00:35:38.972Z,1015.3
2017-07-17T00:36:05.124Z,1015.28
2017-07-17T00:36:31.260Z,1015.27
2017-07-17T00:36:57.407Z,1015.27
2017-07-17T00:37:23.559Z,1015.3
2017-07-17T00:37:49.689Z,1015.33
2017-07-17T00:38:15.833Z,1015.32
2017-07-17T00:38:41.981Z,1015.27
2017-07-17T00:39:08.120Z,1015.28
2017-07-17T00:39:34.270Z,1015.28
2017-07-17T00:40:00.418Z,1015.3
2017-07-17T00:40:26.557Z,1015.29
2017-07-17T00:40:52.692Z,1015.27
2017-07-17T00:41:18.837Z,1015.26
2017-07-17T00:41:44.982Z,1015.3
2017-07-17T00:42:11.135Z,1015.29
2017-07-17T00:42:37.290Z,1015.3
2017-07-17T00:43:03.430Z,1015.3
2017-07-17T00:43:29.582Z,1015.29
2017-07-17T00:43:55.723Z,1015.29
2017-07-17T00:44:21.856Z,1015.3
2017-07-17T00:44:48.012Z,1015.31
2017-07-17T00:45:14.151Z,1015.3
2017-07-17T00:45:40.287Z,1015.3
2017-07-17T00:46:06.438Z,1015.3
2017-07-17T00:46:32.582Z,1015.31
2017-07-17T00:46:58.726Z,1015.3
2017-07-17T00:47:24.864Z,1015.27
2017-07-17T00:47:51.000Z,1015.3
2017-07-17T00:48:17.155Z,1015.28
2017-07-17T00:48:43.296Z,1015.29
2017-07-17T00:49:09.431Z,1015.28
2017-07-17T00:49:35.581Z,1015.28
2017-07-17T00:50:01.723Z,1015.29
2017-07-17T00:50:27.858Z,1015.31
2017-07-17T00:50:54.009Z,1015.3
2017-07-17T00:51:20.161Z,1015.32
2017-07-17T00:51:46.295Z,1015.31
2017-07-17T00:52:12.438Z,1015.3
2017-07-17T00:52:38.572Z,1015.3
2017-07-17T00:53:04.720Z,1015.3
2017-07-17T00:53:30.865Z,1015.32
2017-07-17T00:53:57.000Z,1015.31
2017-07-17T00:54:23.151Z,1015.3
2017-07-17T00:54:49.302Z,1015.29
2017-07-17T00:55:15.435Z,1015.29
2017-07-17T00:55:41.580Z,1015.29
2017-07-17T00:56:07.728Z,1015.33
2017-07-17T00:56:33.865Z,1015.29
2017-07-17T00:57:00.010Z,1015.31
2017-07-17T00:57:26.163Z,1015.29
2017-07-17T00:57:52.302Z,1015.28
2017-07-17T00:58:18.454Z,1015.28
2017-07-17T00:58:44.584Z,1015.28
2017-07-17T00:59:10.730Z,1015.3
2017-07-17T00:59:36.881Z,1015.33
2017-07-17T01:00:03.019Z,1015.32
2017-07-17T01:00:29.158Z,1015.36
2017-07-17T01:00:55.310Z,1015.33
2017-07-17T01:01:21.446Z,1015.32
2017-07-17T01:01:47.585Z,1015.33
2017-07-17T01:02:13.738Z,1015.29
2017-07-17T01:02:39.882Z,1015.29
2017-07-17T01:03:06.020Z,1015.34
2017-07-17T01:03:32.171Z,1015.3
2017-07-17T01:03:58.306Z,1015.32
2017-07-17T01:04:24.458Z,1015.33
2017-07-17T01:04:50.597Z,1015.34
2017-07-17T01:05:16.736Z,1015.35
2017-07-17T01:05:42.890Z,1015.31
2017-07-17T01:06:09.037Z,1015.32
2017-07-17T01:06:35.170Z,1015.33
2017-07-17T01:07:01.325Z,1015.33
2017-07-17T01:07:27.467Z,1015.34
2017-07-17T01:07:53.600Z,1015.34
2017-07-17T01:08:19.750Z,1015.34
2017-07-17T01:08:45.903Z,1015.36
2017-07-17T01:09:12.034Z,1015.33
2017-07-17T01:09:38.181Z,1015.33
2017-07-17T01:10:04.333Z,1015.37
2017-07-17T01:10:30.468Z,1015.38
2017-07-17T01:10:56.603Z,1015.37
2017-07-17T01:11:22.757Z,1015.37
2017-07-17T01:11:48.896Z,1015.38
2017-07-17T01:12:15.031Z,1015.39
2017-07-17T01:12:41.190Z,1015.4
2017-07-17T01:13:07.331Z,1015.38
2017-07-17T01:13:33.467Z,1015.39
2017-07-17T01:13:59.617Z,1015.38
2017-07-17T01:14:25.763Z,1015.39
2017-07-17T01:14:51.904Z,1015.38
2017-07-17T01:15:18.046Z,1015.4
2017-07-17T01:15:44.206Z,1015.39
2017-07-17T01:16:10.363Z,1015.39
2017-07-17T01:16:36.505Z,1015.4
2017-07-17T01:17:02.640Z,1015.39
2017-07-17T01:17:28.793Z,1015.38
2017-07-17T01:17:54.941Z,1015.37
2017-07-17T01:18:21.076Z,1015.39
2017-07-17T01:18:47.222Z,1015.37
2017-07-17T01:19:13.373Z,1015.39
2017-07-17T01:19:39.505Z,1015.37
2017-07-17T01:20:05.653Z,1015.41
2017-07-17T01:20:31.788Z,1015.37
2017-07-17T01:20:57.944Z,1015.38
2017-07-17T01:21:24.087Z,1015.38
2017-07-17T01:21:50.223Z,1015.39
2017-07-17T01:22:16.368Z,1015.37
2017-07-17T01:22:42.520Z,1015.39
2017-07-17T01:23:08.652Z,1015.35
2017-07-17T01:23:34.795Z,1015.36
2017-07-17T01:24:00.948Z,1015.4
2017-07-17T01:24:27.083Z,1015.39
2017-07-17T01:24:53.224Z,1015.34
2017-07-17T01:25:19.376Z,1015.38
2017-07-17T01:25:45.517Z,1015.36
2017-07-17T01:26:11.669Z,1015.39
2017-07-17T01:26:37.804Z,1015.35
2017-07-17T01:27:03.946Z,1015.36
2017-07-17T01:27:30.100Z,1015.38
2017-07-17T01:27:56.234Z,1015.37
2017-07-17T01:28:22.376Z,1015.37
2017-07-17T01:28:48.525Z,1015.36
2017-07-17T01:29:14.668Z,1015.37
2017-07-17T01:29:40.793Z,1015.33
2017-07-17T01:30:06.951Z,1015.36
2017-07-17T01:30:33.119Z,1015.34
2017-07-17T01:30:59.254Z,1015.32
2017-07-17T01:31:25.405Z,1015.33
2017-07-17T01:31:51.544Z,1015.28
2017-07-17T01:32:17.724Z,1015.31
2017-07-17T01:32:43.868Z,1015.28
2017-07-17T01:33:10.004Z,1015.28
2017-07-17T01:33:36.159Z,1015.31
2017-07-17T01:34:02.305Z,1015.28
2017-07-17T01:34:28.462Z,1015.29
2017-07-17T01:34:54.610Z,1015.29
2017-07-17T01:35:20.755Z,1015.28
2017-07-17T01:35:46.888Z,1015.29
2017-07-17T01:36:13.039Z,1015.28
2017-07-17T01:36:39.189Z,1015.27
2017-07-17T01:37:05.328Z,1015.32
2017-07-17T01:37:31.473Z,1015.31
2017-07-17T01:37:57.605Z,1015.32
2017-07-17T01:38:23.755Z,1015.32
2017-07-17T01:38:49.901Z,1015.31
2017-07-17T01:39:16.033Z,1015.31
2017-07-17T01:39:42.178Z,1015.32
2017-07-17T01:40:08.333Z,1015.3
2017-07-17T01:40:34.461Z,1015.33
2017-07-17T01:41:00.607Z,1015.33
2017-07-17T01:41:26.756Z,1015.32
2017-07-17T01:41:52.917Z,1015.3
2017-07-17T01:42:19.058Z,1015.33
2017-07-17T01:42:45.205Z,1015.33
2017-07-17T01:43:11.356Z,1015.28
2017-07-17T01:43:37.531Z,1015.29
2017-07-17T01:44:03.663Z,1015.29
2017-07-17T01:44:29.810Z,1015.31
2017-07-17T01:44:55.963Z,1015.27
2017-07-17T01:45:22.098Z,1015.29
2017-07-17T01:45:48.237Z,1015.33
2017-07-17T01:46:14.391Z,1015.31
2017-07-17T01:46:40.531Z,1015.29
2017-07-17T01:47:06.666Z,1015.3
2017-07-17T01:47:32.822Z,1015.28
2017-07-17T01:47:58.963Z,1015.31
2017-07-17T01:48:25.114Z,1015.32
2017-07-17T01:48:51.249Z,1015.31
2017-07-17T01:49:17.391Z,1015.27
2017-07-17T01:49:43.543Z,1015.26
2017-07-17T01:50:09.680Z,1015.27
2017-07-17T01:50:35.815Z,1015.27
2017-07-17T01:51:01.997Z,1015.25
2017-07-17T01:51:28.137Z,1015.26
2017-07-17T01:51:54.272Z,1015.25
2017-07-17T01:52:20.422Z,1015.25
2017-07-17T01:52:46.568Z,1015.26
2017-07-17T01:53:12.701Z,1015.26
2017-07-17T01:53:38.846Z,1015.25
2017-07-17T01:54:04.997Z,1015.21
2017-07-17T01:54:31.131Z,1015.21
2017-07-17T01:54:57.274Z,1015.23
2017-07-17T01:55:23.427Z,1015.21
2017-07-17T01:55:49.561Z,1015.25
2017-07-17T01:56:15.702Z,1015.24
2017-07-17T01:56:41.852Z,1015.26
2017-07-17T01:57:07.994Z,1015.24
2017-07-17T01:57:34.128Z,1015.26
2017-07-17T01:58:00.285Z,1015.23
2017-07-17T01:58:26.428Z,1015.24
2017-07-17T01:58:52.584Z,1015.25
2017-07-17T01:59:18.740Z,1015.25
2017-07-17T01:59:44.882Z,1015.25
2017-07-17T02:00:11.032Z,1015.27
2017-07-17T02:00:37.171Z,1015.21
2017-07-17T02:01:03.307Z,1015.29
2017-07-17T02:01:29.459Z,1015.24
2017-07-17T02:01:55.601Z,1015.28
2017-07-17T02:02:21.734Z,1015.28
2017-07-17T02:02:47.884Z,1015.24
2017-07-17T02:03:14.027Z,1015.25
2017-07-17T02:03:40.169Z,1015.25
2017-07-17T02:04:06.311Z,1015.25
2017-07-17T02:04:32.465Z,1015.25
2017-07-17T02:04:58.601Z,1015.25
2017-07-17T02:05:24.744Z,1015.26
2017-07-17T02:05:50.880Z,1015.24
2017-07-17T02:06:17.029Z,1015.27
2017-07-17T02:06:43.171Z,1015.26
2017-07-17T02:07:09.308Z,1015.25
2017-07-17T02:07:35.454Z,1015.23
2017-07-17T02:08:01.604Z,1015.27
2017-07-17T02:08:27.737Z,1015.24
2017-07-17T02:08:53.878Z,1015.24
2017-07-17T02:09:19.990Z,1015.24
2017-07-17T02:09:46.123Z,1015.24
2017-07-17T02:10:12.247Z,1015.24
2017-07-17T02:10:38.371Z,1015.25
2017-07-17T02:11:04.488Z,1015.24
2017-07-17T02:11:30.607Z,1015.28
2017-07-17T02:11:56.742Z,1015.23
2017-07-17T02:12:22.866Z,1015.28
2017-07-17T02:12:48.981Z,1015.25
2017-07-17T02:13:15.114Z,1015.26
2017-07-17T02:13:41.263Z,1015.28
2017-07-17T02:14:07.379Z,1015.29
2017-07-17T02:14:33.509Z,1015.22
2017-07-17T02:14:59.643Z,1015.25
2017-07-17T02:15:25.756Z,1015.27
2017-07-17T02:15:51.881Z,1015.23
2017-07-17T02:16:18.000Z,1015.24
2017-07-17T02:16:44.132Z,1015.22
2017-07-17T02:17:10.257Z,1015.23
2017-07-17T02:17:36.375Z,1015.25
2017-07-17T02:18:02.504Z,1015.22
2017-07-17T02:18:28.638Z,1015.24
2017-07-17T02:18:54.752Z,1015.24
2017-07-17T02:19:20.878Z,1015.22
2017-07-17T02:19:47.011Z,1015.22
2017-07-17T02:20:13.129Z,1015.21
2017-07-17T02:20:39.253Z,1015.22
2017-07-17T02:21:05.387Z,1015.22
2017-07-17T02:21:31.507Z,1015.24
2017-07-17T02:21:57.641Z,1015.21
2017-07-17T02:22:23.753Z,1015.21
2017-07-17T02:22:49.881Z,1015.21
2017-07-17T02:23:16.018Z,1015.18
2017-07-17T02:23:42.135Z,1015.21
2017-07-17T02:24:08.260Z,1015.23
2017-07-17T02:24:34.392Z,1015.2
2017-07-17T02:25:00.509Z,1015.21
2017-07-17T02:25:26.628Z,1015.22
2017-07-17T02:25:52.766Z,1015.22
2017-07-17T02:26:18.892Z,1015.23
2017-07-17T02:26:45.009Z,1015.21
2017-07-17T02:27:11.142Z,1015.24
2017-07-17T02:27:37.262Z,1015.19
2017-07-17T02:28:03.396Z,1015.22
2017-07-17T02:28:29.516Z,1015.22
2017-07-17T02:28:55.632Z,1015.24
2017-07-17T02:29:21.768Z,1015.22
2017-07-17T02:29:47.891Z,1015.23
2017-07-17T02:30:14.008Z,1015.19
2017-07-17T02:30:40.140Z,1015.24
2017-07-17T02:31:06.265Z,1015.2
2017-07-17T02:31:32.383Z,1015.2
2017-07-17T02:31:58.511Z,1015.22
2017-07-17T02:32:24.643Z,1015.2
2017-07-17T02:32:50.763Z,1015.27
2017-07-17T02:33:16.884Z,1015.26
2017-07-17T02:33:43.002Z,1015.23
2017-07-17T02:34:09.131Z,1015.24
2017-07-17T02:34:35.256Z,1015.25
2017-07-17T02:35:01.372Z,1015.24
2017-07-17T02:35:27.504Z,1015.23
2017-07-17T02:35:53.637Z,1015.24
2017-07-17T02:36:19.747Z,1015.23
2017-07-17T02:36:45.872Z,1015.27
2017-07-17T02:37:12.002Z,1015.26
2017-07-17T02:37:38.120Z,1015.23
2017-07-17T02:38:04.244Z,1015.27
2017-07-17T02:38:30.377Z,1015.27
2017-07-17T02:38:56.494Z,1015.24
2017-07-17T02:39:22.613Z,1015.24
2017-07-17T02:39:48.750Z,1015.26
2017-07-17T02:40:14.873Z,1015.21
2017-07-17T02:40:40.990Z,1015.28
2017-07-17T02:41:07.147Z,1015.27
2017-07-17T02:41:33.270Z,1015.23
2017-07-17T02:41:59.387Z,1015.23
2017-07-17T02:42:25.515Z,1015.23
2017-07-17T02:42:51.646Z,1015.24
2017-07-17T02:43:17.760Z,1015.22
2017-07-17T02:43:43.888Z,1015.22
2017-07-17T02:44:10.009Z,1015.26
2017-07-17T02:44:36.142Z,1015.24
2017-07-17T02:45:02.268Z,1015.22
2017-07-17T02:45:28.384Z,1015.28
2017-07-17T02:45:54.614Z,1015.27
2017-07-17T02:46:20.747Z,1015.24
2017-07-17T02:46:46.860Z,1015.26
2017-07-17T02:47:12.989Z,1015.23
2017-07-17T02:47:39.121Z,1015.24
2017-07-17T02:48:05.239Z,1015.26
2017-07-17T02:48:31.362Z,1015.25
2017-07-17T02:48:57.494Z,1015.26
2017-07-17T02:49:23.612Z,1015.29
2017-07-17T02:49:49.747Z,1015.28
2017-07-17T02:50:15.860Z,1015.25
2017-07-17T02:50:41.984Z,1015.29
2017-07-17T02:51:08.114Z,1015.3
2017-07-17T02:51:34.230Z,1015.31
2017-07-17T02:52:00.354Z,1015.25
2017-07-17T02:52:26.490Z,1015.26
2017-07-17T02:52:52.610Z,1015.27
2017-07-17T02:53:18.727Z,1015.27
2017-07-17T02:53:44.861Z,1015.3
2017-07-17T02:54:10.982Z,1015.27
2017-07-17T02:54:37.099Z,1015.3
2017-07-17T02:55:03.232Z,1015.31
2017-07-17T02:55:29.351Z,1015.3
2017-07-17T02:55:55.484Z,1015.29
2017-07-17T02:56:21.603Z,1015.3
2017-07-17T02:56:47.721Z,1015.31
2017-07-17T02:57:13.858Z,1015.31
2017-07-17T02:57:39.982Z,1015.31
2017-07-17T02:58:06.098Z,1015.26
2017-07-17T02:58:32.231Z,1015.27
2017-07-17T02:58:58.357Z,1015.27
2017-07-17T02:59:24.474Z,1015.25
2017-07-17T02:59:50.604Z,1015.26
2017-07-17T03:00:16.738Z,1015.23
2017-07-17T03:00:42.859Z,1015.26
2017-07-17T03:01:08.982Z,1015.26
2017-07-17T03:01:35.098Z,1015.24
2017-07-17T03:02:01.230Z,1015.25
2017-07-17T03:02:27.354Z,1015.24
2017-07-17T03:02:53.472Z,1015.23
2017-07-17T03:03:19.600Z,1015.21
2017-07-17T03:03:45.732Z,1015.22
2017-07-17T03:04:11.845Z,1015.26
2017-07-17T03:04:37.972Z,1015.24
2017-07-17T03:05:04.106Z,1015.2
2017-07-17T03:05:30.225Z,1015.26
2017-07-17T03:05:56.347Z,1015.21
2017-07-17T03:06:22.469Z,1015.2
2017-07-17T03:06:48.599Z,1015.22
2017-07-17T03:07:14.729Z,1015.23
2017-07-17T03:07:40.845Z,1015.22
2017-07-17T03:08:06.972Z,1015.24
2017-07-17T03:08:33.102Z,1015.24
2017-07-17T03:08:59.218Z,1015.22
2017-07-17T03:09:25.343Z,1015.21
2017-07-17T03:09:51.476Z,1015.26
2017-07-17T03:10:17.598Z,1015.18
2017-07-17T03:10:43.714Z,1015.2
2017-07-17T03:11:09.850Z,1015.2
2017-07-17T03:11:35.973Z,1015.19
2017-07-17T03:12:02.103Z,1015.22
2017-07-17T03:12:28.221Z,1015.2
2017-07-17T03:12:54.345Z,1015.21
2017-07-17T03:13:20.478Z,1015.24
2017-07-17T03:13:46.597Z,1015.19
2017-07-17T03:14:12.713Z,1015.2
2017-07-17T03:14:38.848Z,1015.2
2017-07-17T03:15:04.970Z,1015.24
2017-07-17T03:15:31.126Z,1015.22
2017-07-17T03:15:57.259Z,1015.22
2017-07-17T03:16:23.385Z,1015.21
2017-07-17T03:16:49.502Z,1015.19
2017-07-17T03:17:15.632Z,1015.18
2017-07-17T03:17:41.753Z,1015.21
2017-07-17T03:18:07.884Z,1015.19
2017-07-17T03:18:34.008Z,1015.2
2017-07-17T03:19:00.122Z,1015.18
2017-07-17T03:19:26.254Z,1015.22
2017-07-17T03:19:52.381Z,1015.14
2017-07-17T03:20:18.499Z,1015.13
2017-07-17T03:20:44.629Z,1015.13
2017-07-17T03:21:10.761Z,1015.13
2017-07-17T03:21:36.875Z,1015.17
2017-07-17T03:22:03.002Z,1015.16
2017-07-17T03:22:29.136Z,1015.16
2017-07-17T03:22:55.254Z,1015.18
2017-07-17T03:23:21.374Z,1015.17
2017-07-17T03:23:47.511Z,1015.16
2017-07-17T03:24:13.628Z,1015.15
2017-07-17T03:24:39.747Z,1015.16
2017-07-17T03:25:05.883Z,1015.21
2017-07-17T03:25:32.009Z,1015.17
2017-07-17T03:25:58.124Z,1015.2
2017-07-17T03:26:24.257Z,1015.19
2017-07-17T03:26:50.383Z,1015.19
2017-07-17T03:27:16.501Z,1015.19
2017-07-17T03:27:42.630Z,1015.16
2017-07-17T03:28:08.763Z,1015.14
2017-07-17T03:28:34.883Z,1015.15
2017-07-17T03:29:01.003Z,1015.15
2017-07-17T03:29:27.119Z,1015.17
2017-07-17T03:29:53.254Z,1015.2
2017-07-17T03:30:19.380Z,1015.17
2017-07-17T03:30:45.498Z,1015.19
2017-07-17T03:31:11.628Z,1015.2
2017-07-17T03:31:37.761Z,1015.21
2017-07-17T03:32:03.874Z,1015.19
2017-07-17T03:32:30.002Z,1015.19
2017-07-17T03:32:56.137Z,1015.18
2017-07-17T03:33:22.255Z,1015.22
2017-07-17T03:33:48.379Z,1015.24
2017-07-17T03:34:14.501Z,1015.25
2017-07-17T03:34:40.631Z,1015.22
2017-07-17T03:35:06.763Z,1015.23
2017-07-17T03:35:32.878Z,1015.22
2017-07-17T03:35:59.003Z,1015.21
2017-07-17T03:36:25.133Z,1015.24
2017-07-17T03:36:51.247Z,1015.27
2017-07-17T03:37:17.370Z,1015.23
2017-07-17T03:37:43.504Z,1015.27
2017-07-17T03:38:09.626Z,1015.27
2017-07-17T03:38:35.742Z,1015.27
2017-07-17T03:39:01.879Z,1015.26
2017-07-17T03:39:28.001Z,1015.25
2017-07-17T03:39:54.131Z,1015.31
2017-07-17T03:40:20.249Z,1015.28
2017-07-17T03:40:46.374Z,1015.28
2017-07-17T03:41:12.506Z,1015.27
2017-07-17T03:41:38.627Z,1015.28
2017-07-17T03:42:04.745Z,1015.31
2017-07-17T03:42:30.881Z,1015.31
2017-07-17T03:42:57.003Z,1015.3
2017-07-17T03:43:23.141Z,1015.3
2017-07-17T03:43:49.273Z,1015.31
2017-07-17T03:44:15.398Z,1015.35
2017-07-17T03:44:41.515Z,1015.34
2017-07-17T03:45:07.645Z,1015.35
2017-07-17T03:45:33.760Z,1015.3
2017-07-17T03:45:59.895Z,1015.37
2017-07-17T03:46:26.018Z,1015.33
2017-07-17T03:46:52.137Z,1015.33
2017-07-17T03:47:18.271Z,1015.3
2017-07-17T03:47:44.397Z,1015.31
2017-07-17T03:48:10.512Z,1015.32
2017-07-17T03:48:36.643Z,1015.35
2017-07-17T03:49:02.776Z,1015.38
2017-07-17T03:49:28.891Z,1015.37
2017-07-17T03:49:55.015Z,1015.35
2017-07-17T03:50:21.145Z,1015.34
2017-07-17T03:50:47.282Z,1015.36
2017-07-17T03:51:13.413Z,1015.39
2017-07-17T03:51:39.530Z,1015.33
2017-07-17T03:52:05.660Z,1015.39
2017-07-17T03:52:31.792Z,1015.41
2017-07-17T03:52:57.906Z,1015.43
2017-07-17T03:53:24.030Z,1015.39
2017-07-17T03:53:50.160Z,1015.41
2017-07-17T03:54:16.275Z,1015.45
2017-07-17T03:54:42.398Z,1015.44
2017-07-17T03:55:08.532Z,1015.46
2017-07-17T03:55:34.654Z,1015.44
2017-07-17T03:56:00.769Z,1015.44
2017-07-17T03:56:26.900Z,1015.48
2017-07-17T03:56:53.027Z,1015.5
2017-07-17T03:57:19.160Z,1015.46
2017-07-17T03:57:45.278Z,1015.48
2017-07-17T03:58:11.403Z,1015.52
2017-07-17T03:58:37.536Z,1015.48
2017-07-17T03:59:03.654Z,1015.48
2017-07-17T03:59:29.771Z,1015.5
2017-07-17T03:59:55.908Z,1015.5
2017-07-17T04:00:22.031Z,1015.5
2017-07-17T04:00:48.148Z,1015.51
2017-07-17T04:01:14.278Z,1015.53
2017-07-17T04:01:40.402Z,1015.54
2017-07-17T04:02:06.530Z,1015.52
2017-07-17T04:02:32.648Z,1015.55
2017-07-17T04:02:58.765Z,1015.53
2017-07-17T04:03:24.901Z,1015.58
2017-07-17T04:03:51.026Z,1015.57
2017-07-17T04:04:17.141Z,1015.58
2017-07-17T04:04:43.274Z,1015.55
2017-07-17T04:05:09.401Z,1015.57
2017-07-17T04:05:35.520Z,1015.57
2017-07-17T04:06:01.650Z,1015.59
2017-07-17T04:06:27.783Z,1015.6
2017-07-17T04:06:53.896Z,1015.57
2017-07-17T04:07:20.060Z,1015.57
2017-07-17T04:07:46.152Z,1015.56
2017-07-17T04:08:12.270Z,1015.58
2017-07-17T04:08:38.392Z,1015.56
2017-07-17T04:09:04.524Z,1015.58
2017-07-17T04:09:30.642Z,1015.61
2017-07-17T04:09:56.758Z,1015.6
2017-07-17T04:10:22.916Z,1015.58
2017-07-17T04:10:49.039Z,1015.59
2017-07-17T04:11:15.157Z,1015.61
2017-07-17T04:11:41.289Z,1015.62
2017-07-17T04:12:07.414Z,1015.58
2017-07-17T04:12:33.532Z,1015.62
2017-07-17T04:12:59.683Z,1015.63
2017-07-17T04:13:25.799Z,1015.64
2017-07-17T04:13:51.934Z,1015.65
2017-07-17T04:14:18.056Z,1015.64
2017-07-17T04:14:44.173Z,1015.64
2017-07-17T04:15:10.308Z,1015.65
2017-07-17T04:15:36.436Z,1015.65
2017-07-17T04:16:02.553Z,1015.64
2017-07-17T04:16:28.682Z,1015.66
2017-07-17T04:16:54.814Z,1015.63
2017-07-17T04:17:20.927Z,1015.63
2017-07-17T04:17:47.055Z,1015.66
2017-07-17T04:18:13.190Z,1015.66
2017-07-17T04:18:39.308Z,1015.65
2017-07-17T04:19:05.438Z,1015.71
2017-07-17T04:19:31.554Z,1015.65
2017-07-17T04:19:57.686Z,1015.69
2017-07-17T04:20:23.818Z,1015.67
2017-07-17T04:20:49.932Z,1015.63
2017-07-17T04:21:16.058Z,1015.64
2017-07-17T04:21:42.191Z,1015.63
2017-07-17T04:22:08.308Z,1015.6
2017-07-17T04:22:34.430Z,1015.57
2017-07-17T04:23:00.565Z,1015.55
2017-07-17T04:23:26.679Z,1015.54
2017-07-17T04:23:52.795Z,1015.52
2017-07-17T04:24:18.924Z,1015.48
2017-07-17T04:24:45.051Z,1015.49
2017-07-17T04:25:11.184Z,1015.52
2017-07-17T04:25:37.301Z,1015.56
2017-07-17T04:26:03.424Z,1015.55
2017-07-17T04:26:29.554Z,1015.56
2017-07-17T04:26:55.672Z,1015.6
2017-07-17T04:27:21.788Z,1015.6
2017-07-17T04:27:47.926Z,1015.61
2017-07-17T04:28:14.049Z,1015.61
2017-07-17T04:28:40.167Z,1015.57
2017-07-17T04:29:06.299Z,1015.61
2017-07-17T04:29:32.426Z,1015.59
2017-07-17T04:29:58.552Z,1015.61
2017-07-17T04:30:24.673Z,1015.59
2017-07-17T04:30:50.790Z,1015.61
2017-07-17T04:31:16.948Z,1015.6
2017-07-17T04:31:43.071Z,1015.63
2017-07-17T04:32:09.190Z,1015.61
2017-07-17T04:32:35.323Z,1015.67
2017-07-17T04:33:01.450Z,1015.64
2017-07-17T04:33:27.564Z,1015.63
2017-07-17T04:33:53.694Z,1015.64
2017-07-17T04:34:19.825Z,1015.64
2017-07-17T04:34:45.940Z,1015.67
2017-07-17T04:35:12.066Z,1015.67
2017-07-17T04:35:38.185Z,1015.69
2017-07-17T04:36:04.317Z,1015.65
2017-07-17T04:36:30.443Z,1015.66
2017-07-17T04:36:56.560Z,1015.69
2017-07-17T04:37:22.689Z,1015.67
2017-07-17T04:37:48.823Z,1015.68
2017-07-17T04:38:14.935Z,1015.68
2017-07-17T04:38:41.063Z,1015.66
2017-07-17T04:39:07.195Z,1015.65
2017-07-17T04:39:33.311Z,1015.62
2017-07-17T04:39:59.432Z,1015.59
2017-07-17T04:40:25.564Z,1015.63
2017-07-17T04:40:51.682Z,1015.61
2017-07-17T04:41:17.814Z,1015.63
2017-07-17T04:41:43.930Z,1015.61
2017-07-17T04:42:10.054Z,1015.65
2017-07-17T04:42:36.185Z,1015.6
2017-07-17T04:43:02.299Z,1015.68
2017-07-17T04:43:28.422Z,1015.65
2017-07-17T04:43:54.556Z,1015.67
2017-07-17T04:44:20.678Z,1015.68
2017-07-17T04:44:46.794Z,1015.65
2017-07-17T04:45:12.930Z,1015.66
2017-07-17T04:45:39.051Z,1015.66
2017-07-17T04:46:05.167Z,1015.64
2017-07-17T04:46:31.303Z,1015.64
2017-07-17T04:46:57.422Z,1015.68
2017-07-17T04:47:23.553Z,1015.69
2017-07-17T04:47:49.672Z,1015.66
2017-07-17T04:48:15.807Z,1015.7
2017-07-17T04:48:41.946Z,1015.74
2017-07-17T04:49:08.065Z,1015.71
2017-07-17T04:49:34.183Z,1015.73
2017-07-17T04:50:00.318Z,1015.75
2017-07-17T04:50:26.451Z,1015.72
2017-07-17T04:50:52.564Z,1015.72
2017-07-17T04:51:18.691Z,1015.74
2017-07-17T04:51:44.824Z,1015.76
2017-07-17T04:52:10.938Z,1015.71
2017-07-17T04:52:37.063Z,1015.72
2017-07-17T04:53:03.195Z,1015.69
2017-07-17T04:53:29.310Z,1015.71
2017-07-17T04:53:55.434Z,1015.72
2017-07-17T04:54:21.566Z,1015.73
2017-07-17T04:54:47.687Z,1015.71
2017-07-17T04:55:13.806Z,1015.75
2017-07-17T04:55:39.942Z,1015.72
2017-07-17T04:56:06.065Z,1015.73
2017-07-17T04:56:32.179Z,1015.73
2017-07-17T04:56:58.313Z,1015.74
2017-07-17T04:57:24.439Z,1015.74
2017-07-17T04:57:50.567Z,1015.74
2017-07-17T04:58:16.690Z,1015.75
2017-07-17T04:58:42.810Z,1015.78
2017-07-17T04:59:08.968Z,1015.78
2017-07-17T04:59:35.091Z,1015.76
2017-07-17T05:00:01.208Z,1015.73
2017-07-17T05:00:27.341Z,1015.79
2017-07-17T05:00:53.467Z,1015.77
2017-07-17T05:01:19.584Z,1015.81
2017-07-17T05:01:45.715Z,1015.8
2017-07-17T05:02:11.849Z,1015.81
2017-07-17T05:02:37.964Z,1015.83
2017-07-17T05:03:04.089Z,1015.82
2017-07-17T05:03:30.209Z,1015.86
2017-07-17T05:03:56.343Z,1015.85
2017-07-17T05:04:22.471Z,1015.86
2017-07-17T05:04:48.586Z,1015.88
2017-07-17T05:05:14.715Z,1015.88
2017-07-17T05:05:40.845Z,1015.9
2017-07-17T05:06:06.957Z,1015.93
2017-07-17T05:06:33.084Z,1015.93
2017-07-17T05:06:59.217Z,1015.93
2017-07-17T05:07:25.333Z,1015.91
2017-07-17T05:07:51.459Z,1015.9
2017-07-17T05:08:17.590Z,1015.89
2017-07-17T05:08:43.709Z,1015.93
2017-07-17T05:09:09.842Z,1015.93
2017-07-17T05:09:35.958Z,1015.96
2017-07-17T05:10:02.082Z,1016.01
2017-07-17T05:10:28.212Z,1015.94
2017-07-17T05:10:54.338Z,1015.93
2017-07-17T05:11:20.471Z,1015.96
2017-07-17T05:11:46.604Z,1015.95
2017-07-17T05:12:12.724Z,1015.9
2017-07-17T05:12:38.842Z,1015.94
2017-07-17T05:13:04.978Z,1015.96
2017-07-17T05:13:31.101Z,1015.94
2017-07-17T05:13:57.222Z,1015.95
2017-07-17T05:14:23.355Z,1015.98
2017-07-17T05:14:49.476Z,1015.95
2017-07-17T05:15:15.611Z,1015.94
2017-07-17T05:15:41.732Z,1015.93
2017-07-17T05:16:07.870Z,1015.95
2017-07-17T05:16:33.980Z,1015.97
2017-07-17T05:17:00.102Z,1015.98
2017-07-17T05:17:26.220Z,1015.95